Time;durP1;ratioP1;P1;durP2;ratioP2;P2;SDS_P1;SDS_P2;PMS_P1;PMS_P2;Temp;Humidity;BMP_temperature;BMP_pressure;BME280_temperature;BME280_humidity;BME280_pressure;Samples;Min_cycle;Max_cycle;Signal;HPM_P1;HPM_P2
2022/02/17 00:00:14;;;;;;;;;;;9.20;99.90;9.50;99699.00;;;;342961;28;95990;-92
2022/02/17 00:00:27;;;;;;;;;;;9.20;99.90;9.50;99715.00;;;;341824;28;83589;-93
2022/02/17 00:00:40;;;;;;;;;;;9.20;99.90;9.50;99708.00;;;;343093;28;95562;-93
2022/02/17 00:00:51;;;;;;;;;;;9.20;99.90;9.50;99703.00;;;;342930;28;83584;-92
2022/02/17 00:01:03;;;;;;;;;;;9.20;99.90;9.50;99696.00;;;;341073;28;94818;-93
2022/02/17 00:01:15;;;;;;;;;;;9.20;99.90;9.60;99701.00;;;;341842;28;83623;-93
2022/02/17 00:01:28;;;;;;;;;;;9.20;99.90;9.60;99700.00;;;;341320;28;96266;-94
2022/02/17 00:01:39;;;;;;;;;;;9.20;99.90;9.60;99699.00;;;;342302;28;82414;-94
2022/02/17 00:01:52;;;;;;;;;;;9.20;99.90;9.60;99698.00;;;;341280;28;96547;-94
2022/02/17 00:02:04;;;;;;;;;;;9.20;99.90;9.60;99698.00;;;;343264;28;83555;-93
2022/02/17 00:02:16;;;;;;;;;;;9.20;99.90;9.70;99695.00;;;;342617;28;96501;-93
2022/02/17 00:02:27;;;;;;;;;;;9.20;99.90;9.70;99701.00;;;;342138;28;83353;-94
2022/02/17 00:02:41;;;;;;;;;;;9.20;99.90;9.60;99697.00;;;;344011;28;94795;-93
2022/02/17 00:02:53;;;;;;;;;;;9.20;99.90;9.50;99698.00;;;;341461;28;83643;-94
2022/02/17 00:03:06;;;;;;;;;;;9.20;99.90;9.50;99699.00;;;;341814;28;96900;-93
2022/02/17 00:03:17;;;;;;;;;;;9.20;99.90;9.50;99699.00;;;;345844;28;83395;-94
2022/02/17 00:03:29;;;;;;;;;;;9.20;99.90;9.50;99702.00;;;;341274;28;94770;-94
2022/02/17 00:03:41;;;;;;;;;;;9.20;99.90;9.50;99701.00;;;;342013;28;83399;-93
2022/02/17 00:03:53;;;;;;;;;;;9.10;99.90;9.50;99703.00;;;;341409;28;93018;-93
2022/02/17 00:04:05;;;;;;;;;;;9.10;99.90;9.40;99707.00;;;;341920;28;83522;-94
2022/02/17 00:04:16;;;;;;;;;;;9.10;99.90;9.50;99704.00;;;;341279;28;95977;-93
2022/02/17 00:04:28;;;;;;;;;;;9.10;99.90;9.40;99706.00;;;;342081;28;82418;-93
2022/02/17 00:04:40;;;;;;;;;;;9.10;99.90;9.40;99705.00;;;;342540;28;95592;-94
2022/02/17 00:04:54;;;;;;;;;;;9.10;99.90;9.40;99711.00;;;;342796;28;83602;-93
2022/02/17 00:05:06;;;;;;;;;;;9.10;99.90;9.50;99703.00;;;;341950;28;95545;-93
2022/02/17 00:05:18;;;;;;;;;;;9.10;99.90;9.60;99706.00;;;;342413;28;83523;-93
2022/02/17 00:05:29;;;;;;;;;;;9.10;99.90;9.50;99707.00;;;;341435;28;97984;-93
2022/02/17 00:05:41;;;;;;;;;;;9.10;99.90;9.50;99711.00;;;;342074;28;83432;-93
2022/02/17 00:05:53;;;;;;;;;;;9.10;99.90;9.50;99713.00;;;;340014;28;96159;-93
2022/02/17 00:06:05;;;;;;;;;;;9.10;99.90;9.50;99713.00;;;;342180;28;82586;-94
2022/02/17 00:06:17;;;;;;;;;;;9.10;99.90;9.40;99716.00;;;;340572;28;95840;-93
2022/02/17 00:06:29;;;;;;;;;;;9.10;99.90;9.40;99720.00;;;;342273;28;83448;-94
2022/02/17 00:06:41;;;;;;;;;;;9.10;99.90;9.40;99726.00;;;;341391;28;95525;-93
2022/02/17 00:06:53;;;;;;;;;;;9.10;99.90;9.40;99721.00;;;;342073;28;83083;-94
2022/02/17 00:07:05;;;;;;;;;;;9.00;99.90;9.40;99727.00;;;;341409;28;95271;-93
2022/02/17 00:07:17;;;;;;;;;;;9.00;99.90;9.30;99728.00;;;;342187;28;83401;-94
2022/02/17 00:07:28;;;;;;;;;;;9.10;99.90;9.30;99721.00;;;;341290;28;97478;-94
2022/02/17 00:07:40;;;;;;;;;;;9.00;99.90;9.30;99733.00;;;;344811;28;82486;-94
2022/02/17 00:07:52;;;;;;;;;;;9.00;99.90;9.30;99728.00;;;;342743;28;92693;-93
2022/02/17 00:08:04;;;;;;;;;;;9.00;99.90;9.40;99727.00;;;;343741;28;83497;-93
2022/02/17 00:08:17;;;;;;;;;;;9.00;99.90;9.30;99730.00;;;;341332;28;95921;-94
2022/02/17 00:08:29;;;;;;;;;;;9.00;99.90;9.40;99735.00;;;;343192;28;83382;-94
2022/02/17 00:08:42;;;;;;;;;;;9.00;99.90;9.30;99741.00;;;;342458;28;95440;-93
2022/02/17 00:08:56;;;;;;;;;;;9.00;99.90;9.30;99736.00;;;;345747;28;82515;-93
2022/02/17 00:09:08;;;;;;;;;;;9.00;99.90;9.30;99732.00;;;;343709;28;95609;-93
2022/02/17 00:09:20;;;;;;;;;;;9.00;99.90;9.30;99746.00;;;;340988;28;83463;-94
2022/02/17 00:09:32;;;;;;;;;;;9.00;99.90;9.30;99736.00;;;;342194;28;98668;-94
2022/02/17 00:09:44;;;;;;;;;;;9.00;99.90;9.30;99741.00;;;;344633;28;82549;-93
2022/02/17 00:09:57;;;;;;;;;;;9.00;99.90;9.30;99742.00;;;;342258;28;96141;-93
2022/02/17 00:10:09;;;;;;;;;;;9.00;99.90;9.40;99737.00;;;;343896;28;82524;-94
2022/02/17 00:10:23;;;;;;;;;;;9.00;99.90;9.30;99743.00;;;;343970;28;95245;-94
2022/02/17 00:10:35;;;;;;;;;;;9.00;99.90;9.40;99738.00;;;;343562;28;83541;-93
2022/02/17 00:10:47;;;;;;;;;;;9.00;99.90;9.40;99734.00;;;;342515;28;96780;-93
2022/02/17 00:10:59;;;;;;;;;;;9.00;99.90;9.40;99742.00;;;;341772;28;82573;-94
2022/02/17 00:11:10;;;;;;;;;;;9.00;99.90;9.40;99740.00;;;;340604;28;96914;-94
2022/02/17 00:11:22;;;;;;;;;;;9.00;99.90;9.40;99737.00;;;;343251;28;83399;-94
2022/02/17 00:11:34;;;;;;;;;;;9.00;99.90;9.40;99732.00;;;;343362;28;96213;-94
2022/02/17 00:11:46;;;;;;;;;;;9.00;99.90;9.40;99731.00;;;;343452;28;83370;-93
2022/02/17 00:11:58;;;;;;;;;;;9.00;99.90;9.50;99738.00;;;;341282;28;95828;-93
2022/02/17 00:12:10;;;;;;;;;;;9.00;99.90;9.40;99726.00;;;;343509;28;83466;-93
2022/02/17 00:12:22;;;;;;;;;;;9.00;99.90;9.50;99733.00;;;;344747;28;97017;-93
2022/02/17 00:12:34;;;;;;;;;;;9.00;99.90;9.50;99731.00;;;;344546;28;83414;-92
2022/02/17 00:12:46;;;;;;;;;;;9.00;99.90;9.50;99728.00;;;;342479;28;96847;-94
2022/02/17 00:12:59;;;;;;;;;;;9.00;99.90;9.50;99728.00;;;;344297;28;84099;-93
2022/02/17 00:13:10;;;;;;;;;;;8.90;99.90;9.50;99729.00;;;;341725;28;95373;-93
2022/02/17 00:13:22;;;;;;;;;;;9.00;99.90;9.50;99729.00;;;;340969;28;82521;-93
2022/02/17 00:13:34;;;;;;;;;;;9.00;99.90;9.50;99722.00;;;;342485;28;97741;-93
2022/02/17 00:13:46;;;;;;;;;;;9.00;99.90;9.50;99717.00;;;;343391;28;83176;-93
2022/02/17 00:13:58;;;;;;;;;;;9.00;99.90;9.50;99716.00;;;;341455;28;96954;-93
2022/02/17 00:14:10;;;;;;;;;;;9.00;99.90;9.50;99723.00;;;;345108;28;83426;-94
2022/02/17 00:14:23;;;;;;;;;;;9.00;99.90;9.40;99718.00;;;;344900;28;96932;-93
2022/02/17 00:14:35;;;;;;;;;;;9.00;99.90;9.40;99719.00;;;;343037;28;83300;-93
2022/02/17 00:14:46;;;;;;;;;;;9.00;99.90;9.40;99716.00;;;;343878;28;96221;-94
2022/02/17 00:14:58;;;;;;;;;;;9.00;99.90;9.40;99712.00;;;;340670;28;82562;-93
2022/02/17 00:15:10;;;;;;;;;;;9.00;99.90;9.40;99714.00;;;;341256;28;96810;-94
2022/02/17 00:15:22;;;;;;;;;;;9.00;99.90;9.40;99720.00;;;;344804;28;83308;-93
2022/02/17 00:15:34;;;;;;;;;;;9.00;99.90;9.40;99723.00;;;;340362;28;97727;-94
2022/02/17 00:15:46;;;;;;;;;;;9.00;99.90;9.40;99727.00;;;;341579;28;83465;-94
2022/02/17 00:15:58;;;;;;;;;;;9.00;99.90;9.40;99724.00;;;;342648;28;96997;-93
2022/02/17 00:16:10;;;;;;;;;;;9.00;99.90;9.30;99730.00;;;;342516;28;83365;-94
2022/02/17 00:16:22;;;;;;;;;;;9.00;99.90;9.40;99726.00;;;;342866;28;96679;-94
2022/02/17 00:16:34;;;;;;;;;;;9.00;99.90;9.40;99716.00;;;;342468;28;83397;-94
2022/02/17 00:16:48;;;;;;;;;;;9.00;99.90;9.40;99730.00;;;;340056;28;94985;-93
2022/02/17 00:17:00;;;;;;;;;;;9.00;99.90;9.40;99721.00;;;;343530;28;83235;-93
2022/02/17 00:17:12;;;;;;;;;;;9.00;99.90;9.40;99720.00;;;;343499;28;97108;-94
2022/02/17 00:17:25;;;;;;;;;;;9.00;99.90;9.40;99731.00;;;;341206;28;83343;-93
2022/02/17 00:17:41;;;;;;;;;;;9.00;99.90;9.40;99727.00;;;;340319;28;98309;-94
2022/02/17 00:17:54;;;;;;;;;;;9.00;99.90;9.40;99725.00;;;;342027;28;83372;-93
2022/02/17 00:18:23;;;;;;;;;;;9.00;99.90;9.40;99727.00;;;;342283;28;95565;-94
2022/02/17 00:18:35;;;;;;;;;;;9.00;99.90;9.50;99728.00;;;;343932;28;82539;-93
2022/02/17 00:18:47;;;;;;;;;;;9.00;99.90;9.50;99719.00;;;;342901;28;95761;-93
2022/02/17 00:19:01;;;;;;;;;;;9.00;99.90;9.50;99718.00;;;;343755;28;83318;-93
2022/02/17 00:19:13;;;;;;;;;;;9.00;99.90;9.50;99724.00;;;;342940;28;96661;-93
2022/02/17 00:19:26;;;;;;;;;;;9.00;99.90;9.50;99717.00;;;;343473;28;83455;-94
2022/02/17 00:19:38;;;;;;;;;;;9.00;99.90;9.50;99727.00;;;;341637;28;96758;-94
2022/02/17 00:19:50;;;;;;;;;;;9.00;99.90;9.50;99716.00;;;;345835;28;82451;-94
2022/02/17 00:20:03;;;;;;;;;;;9.00;99.90;9.50;99719.00;;;;343948;28;97048;-94
2022/02/17 00:20:14;;;;;;;;;;;9.00;99.90;9.50;99714.00;;;;346213;28;83486;-94
2022/02/17 00:20:26;;;;;;;;;;;9.00;99.90;9.50;99725.00;;;;342824;28;94169;-94
2022/02/17 00:20:38;;;;;;;;;;;9.00;99.90;9.50;99719.00;;;;340668;28;83414;-93
2022/02/17 00:20:53;;;;;;;;;;;9.00;99.90;9.60;99715.00;;;;340369;28;95229;-94
2022/02/17 00:21:04;;;;;;;;;;;9.00;99.90;9.60;99715.00;;;;341871;28;83380;-94
2022/02/17 00:21:16;;;;;;;;;;;9.00;99.90;9.50;99709.00;;;;342325;28;97230;-94
2022/02/17 00:21:29;;;;;;;;;;;9.00;99.90;9.50;99713.00;;;;344745;28;83305;-93
2022/02/17 00:21:41;;;;;;;;;;;9.00;99.90;9.50;99714.00;;;;339978;28;96360;-93
2022/02/17 00:21:52;;;;;;;;;;;9.10;99.90;9.50;99709.00;;;;344658;28;82415;-94
2022/02/17 00:22:05;;;;;;;;;;;9.10;99.90;9.40;99710.00;;;;342455;28;97521;-93
2022/02/17 00:22:17;;;;;;;;;;;9.00;99.90;9.50;99705.00;;;;344801;28;83536;-94
2022/02/17 00:22:29;;;;;;;;;;;9.00;99.90;9.50;99708.00;;;;339978;28;96565;-93
2022/02/17 00:22:41;;;;;;;;;;;9.00;99.90;9.50;99711.00;;;;341759;28;83535;-94
2022/02/17 00:22:53;;;;;;;;;;;9.00;99.90;9.40;99697.00;;;;342108;28;96846;-94
2022/02/17 00:23:04;;;;;;;;;;;9.00;99.90;9.40;99705.00;;;;342499;28;83867;-93
2022/02/17 00:23:16;;;;;;;;;;;9.00;99.90;9.40;99708.00;;;;344167;28;96769;-93
2022/02/17 00:23:28;;;;;;;;;;;9.00;99.90;9.40;99708.00;;;;342295;28;83540;-93
2022/02/17 00:23:40;;;;;;;;;;;9.00;99.90;9.40;99705.00;;;;341304;28;96875;-94
2022/02/17 00:26:21;;;;;;;;;;;9.00;99.90;9.30;99734.00;;;;338283;28;96130;-93
2022/02/17 00:26:33;;;;;;;;;;;9.00;99.90;9.30;99742.00;;;;339641;28;82344;-92
2022/02/17 00:26:45;;;;;;;;;;;9.00;99.90;9.30;99735.00;;;;338905;28;96380;-92
2022/02/17 00:26:57;;;;;;;;;;;9.00;99.90;9.30;99737.00;;;;339639;28;82539;-92
2022/02/17 00:27:09;;;;;;;;;;;9.00;99.90;9.30;99743.00;;;;337686;28;94133;-92
2022/02/17 00:27:21;;;;;;;;;;;9.00;99.90;9.30;99745.00;;;;336530;28;82474;-92
2022/02/17 00:27:34;;;;;;;;;;;9.00;99.90;9.30;99746.00;;;;337471;28;95646;-93
2022/02/17 00:27:45;;;;;;;;;;;9.00;99.90;9.30;99752.00;;;;340710;28;82403;-93
2022/02/17 00:27:57;;;;;;;;;;;8.90;99.90;9.30;99748.00;;;;337333;28;96755;-92
2022/02/17 00:28:09;;;;;;;;;;;9.00;99.90;9.30;99741.00;;;;338941;28;83331;-92
2022/02/17 00:28:21;;;;;;;;;;;8.90;99.90;9.30;99742.00;;;;333552;29;96007;-92
2022/02/17 00:28:33;;;;;;;;;;;8.90;99.90;9.30;99737.00;;;;333999;29;83276;-93
2022/02/17 00:28:45;;;;;;;;;;;8.90;99.90;9.30;99744.00;;;;334880;29;93283;-93
2022/02/17 00:28:59;;;;;;;;;;;8.90;99.90;9.30;99739.00;;;;335994;28;82589;-93
2022/02/17 00:29:12;;;;;;;;;;;8.90;99.90;9.40;99737.00;;;;336120;28;94587;-92
2022/02/17 00:29:24;;;;;;;;;;;8.90;99.90;9.40;99732.00;;;;338218;28;82482;-93
2022/02/17 00:29:36;;;;;;;;;;;8.90;99.90;9.40;99738.00;;;;335955;28;95521;-92
2022/02/17 00:29:48;;;;;;;;;;;8.90;99.90;9.50;99728.00;;;;338395;28;82622;-93
2022/02/17 00:30:03;;;;;;;;;;;8.90;99.90;9.50;99729.00;;;;336012;28;97585;-93
2022/02/17 00:30:14;;;;;;;;;;;9.00;99.90;9.50;99726.00;;;;336880;28;83295;-93
2022/02/17 00:30:28;;;;;;;;;;;9.00;99.90;9.60;99725.00;;;;338819;28;97192;-94
2022/02/17 00:30:40;;;;;;;;;;;9.00;99.90;9.50;99721.00;;;;339595;28;82559;-93
2022/02/17 00:30:52;;;;;;;;;;;9.00;99.90;9.50;99720.00;;;;337439;28;96506;-93
2022/02/17 00:31:04;;;;;;;;;;;9.00;99.90;9.50;99718.00;;;;339405;28;82584;-92
2022/02/17 00:31:16;;;;;;;;;;;9.00;99.90;9.50;99720.00;;;;337956;28;96377;-93
2022/02/17 00:31:28;;;;;;;;;;;9.00;99.90;9.50;99714.00;;;;334447;29;82480;-93
2022/02/17 00:31:40;;;;;;;;;;;9.00;99.90;9.50;99714.00;;;;336724;28;96590;-93
2022/02/17 00:31:52;;;;;;;;;;;9.00;99.90;9.60;99712.00;;;;339348;28;83427;-93
2022/02/17 00:32:05;;;;;;;;;;;9.00;99.90;9.60;99712.00;;;;336605;28;96132;-92
2022/02/17 00:32:16;;;;;;;;;;;9.00;99.90;9.60;99715.00;;;;336846;28;82447;-94
2022/02/17 00:32:28;;;;;;;;;;;9.00;99.90;9.50;99711.00;;;;338636;28;96498;-92
2022/02/17 00:32:40;;;;;;;;;;;9.00;99.90;9.50;99715.00;;;;339556;28;82528;-92
2022/02/17 00:32:52;;;;;;;;;;;9.00;99.90;9.50;99707.00;;;;338666;28;95492;-92
2022/02/17 00:33:04;;;;;;;;;;;9.00;99.90;9.40;99713.00;;;;339446;28;82403;-92
2022/02/17 00:33:16;;;;;;;;;;;9.00;99.90;9.40;99702.00;;;;336779;28;96589;-92
2022/02/17 00:33:27;;;;;;;;;;;9.00;99.90;9.40;99710.00;;;;337627;28;83527;-93
2022/02/17 00:33:40;;;;;;;;;;;9.00;99.90;9.40;99711.00;;;;337319;28;97071;-93
2022/02/17 00:33:52;;;;;;;;;;;9.00;99.90;9.40;99712.00;;;;338934;28;83555;-92
2022/02/17 00:34:04;;;;;;;;;;;9.00;99.90;9.50;99704.00;;;;336817;28;95730;-93
2022/02/17 00:34:16;;;;;;;;;;;9.00;99.90;9.60;99710.00;;;;339496;28;82441;-92
2022/02/17 00:34:28;;;;;;;;;;;9.00;99.90;9.60;99708.00;;;;339016;28;96037;-94
2022/02/17 00:34:40;;;;;;;;;;;9.00;99.90;9.50;99711.00;;;;338356;28;82531;-93
2022/02/17 00:34:52;;;;;;;;;;;9.00;99.90;9.60;99703.00;;;;338527;28;97108;-93
2022/02/17 00:35:04;;;;;;;;;;;9.00;99.90;9.50;99706.00;;;;339795;28;82662;-91
2022/02/17 00:35:17;;;;;;;;;;;9.00;99.90;9.50;99707.00;;;;334871;29;96092;-93
2022/02/17 00:35:30;;;;;;;;;;;9.10;99.90;9.50;99711.00;;;;338074;28;82611;-93
2022/02/17 00:35:43;;;;;;;;;;;9.10;99.90;9.40;99710.00;;;;336235;28;92761;-93
2022/02/17 00:35:55;;;;;;;;;;;9.00;99.90;9.40;99712.00;;;;336998;28;82310;-93
2022/02/17 00:36:07;;;;;;;;;;;9.00;99.90;9.40;99715.00;;;;337292;28;96526;-92
2022/02/17 00:36:19;;;;;;;;;;;9.00;99.90;9.40;99701.00;;;;339442;28;82580;-93
2022/02/17 00:36:32;;;;;;;;;;;9.00;99.90;9.40;99713.00;;;;338849;28;97855;-92
2022/02/17 00:36:44;;;;;;;;;;;9.00;99.90;9.40;99718.00;;;;336845;28;83297;-92
2022/02/17 00:36:56;;;;;;;;;;;9.00;99.90;9.40;99715.00;;;;336226;28;95970;-92
2022/02/17 00:37:08;;;;;;;;;;;9.00;99.90;9.40;99715.00;;;;336866;28;82501;-92
2022/02/17 00:37:19;;;;;;;;;;;9.00;99.90;9.40;99713.00;;;;336968;28;95650;-93
2022/02/17 00:37:31;;;;;;;;;;;9.00;99.90;9.40;99721.00;;;;336596;28;83442;-93
2022/02/17 00:37:43;;;;;;;;;;;9.00;99.90;9.40;99722.00;;;;336718;28;97205;-92
2022/02/17 00:37:56;;;;;;;;;;;9.00;99.90;9.40;99731.00;;;;336433;28;82723;-93
2022/02/17 00:38:07;;;;;;;;;;;9.00;99.90;9.30;99727.00;;;;334461;28;97935;-93
2022/02/17 00:38:19;;;;;;;;;;;9.00;99.90;9.30;99735.00;;;;336418;28;83521;-93
2022/02/17 00:38:31;;;;;;;;;;;9.00;99.90;9.30;99730.00;;;;336708;28;96668;-93
2022/02/17 00:38:45;;;;;;;;;;;9.00;99.90;9.30;99735.00;;;;336224;28;83577;-93
2022/02/17 00:38:57;;;;;;;;;;;9.00;99.90;9.30;99736.00;;;;335706;28;96843;-92
2022/02/17 00:39:09;;;;;;;;;;;9.00;99.90;9.30;99743.00;;;;338701;28;82991;-93
2022/02/17 00:39:21;;;;;;;;;;;9.00;99.90;9.30;99741.00;;;;335928;28;97161;-93
2022/02/17 00:39:33;;;;;;;;;;;8.90;99.90;9.30;99738.00;;;;338393;28;83386;-93
2022/02/17 00:39:45;;;;;;;;;;;8.90;99.90;9.30;99744.00;;;;338667;28;96329;-92
2022/02/17 00:39:57;;;;;;;;;;;8.90;99.90;9.30;99741.00;;;;335672;29;82342;-92
2022/02/17 00:40:09;;;;;;;;;;;8.90;99.90;9.30;99746.00;;;;334583;29;97649;-92
2022/02/17 00:40:21;;;;;;;;;;;8.90;99.90;9.30;99739.00;;;;334949;29;83540;-93
2022/02/17 00:40:33;;;;;;;;;;;8.90;99.90;9.40;99735.00;;;;334576;29;95799;-92
2022/02/17 00:40:45;;;;;;;;;;;8.90;99.90;9.50;99741.00;;;;337984;28;83458;-92
2022/02/17 00:40:57;;;;;;;;;;;8.90;99.90;9.40;99742.00;;;;338254;28;95963;-92
2022/02/17 00:41:08;;;;;;;;;;;9.00;99.90;9.40;99741.00;;;;337920;28;83311;-92
2022/02/17 00:41:20;;;;;;;;;;;9.00;99.90;9.40;99743.00;;;;338595;28;96940;-92
2022/02/17 00:41:32;;;;;;;;;;;9.00;99.90;9.40;99738.00;;;;335521;29;83478;-93
2022/02/17 00:41:44;;;;;;;;;;;8.90;99.90;9.40;99740.00;;;;337323;28;95969;-93
2022/02/17 00:41:56;;;;;;;;;;;8.90;99.90;9.40;99745.00;;;;338172;28;82414;-93
2022/02/17 00:42:09;;;;;;;;;;;8.90;99.90;9.40;99744.00;;;;336493;28;98226;-92
2022/02/17 00:42:20;;;;;;;;;;;8.90;99.90;9.40;99746.00;;;;335081;29;83507;-92
2022/02/17 00:42:32;;;;;;;;;;;8.90;99.90;9.40;99752.00;;;;337308;28;96344;-92
2022/02/17 00:42:44;;;;;;;;;;;8.90;99.90;9.30;99744.00;;;;336589;28;83290;-93
2022/02/17 00:42:56;;;;;;;;;;;8.90;99.90;9.30;99745.00;;;;335912;28;96482;-93
2022/02/17 00:43:08;;;;;;;;;;;9.00;99.90;9.30;99756.00;;;;339605;28;83055;-93
2022/02/17 00:43:20;;;;;;;;;;;8.90;99.90;9.30;99749.00;;;;336078;28;95629;-93
2022/02/17 00:43:32;;;;;;;;;;;8.90;99.90;9.30;99750.00;;;;336640;28;83206;-93
2022/02/17 00:43:44;;;;;;;;;;;8.90;99.90;9.30;99760.00;;;;337003;28;96464;-93
2022/02/17 00:43:56;;;;;;;;;;;8.90;99.90;9.30;99765.00;;;;337150;28;82676;-93
2022/02/17 00:44:08;;;;;;;;;;;8.90;99.90;9.30;99763.00;;;;339404;28;97761;-92
2022/02/17 00:44:20;;;;;;;;;;;8.90;99.90;9.30;99771.00;;;;339239;28;84705;-93
2022/02/17 00:44:32;;;;;;;;;;;8.90;99.90;9.30;99769.00;;;;337660;28;96817;-93
2022/02/17 00:44:47;;;;;;;;;;;8.90;99.90;9.30;99760.00;;;;340233;28;83399;-92
2022/02/17 00:44:59;;;;;;;;;;;8.90;99.90;9.30;99768.00;;;;336393;28;96126;-93
2022/02/17 00:45:10;;;;;;;;;;;8.90;99.90;9.30;99767.00;;;;335521;29;83257;-93
2022/02/17 00:45:22;;;;;;;;;;;8.90;99.90;9.30;99770.00;;;;336410;28;95571;-93
2022/02/17 00:45:34;;;;;;;;;;;8.90;99.90;9.30;99771.00;;;;340991;28;83054;-93
2022/02/17 00:45:47;;;;;;;;;;;8.90;99.90;9.30;99769.00;;;;340313;28;96124;-93
2022/02/17 00:45:59;;;;;;;;;;;8.90;99.90;9.30;99771.00;;;;339562;28;83491;-92
2022/02/17 00:46:11;;;;;;;;;;;8.90;99.90;9.30;99776.00;;;;337599;28;97135;-92
2022/02/17 00:46:23;;;;;;;;;;;8.90;99.90;9.30;99780.00;;;;339598;28;83363;-93
2022/02/17 00:46:35;;;;;;;;;;;8.90;99.90;9.30;99784.00;;;;338498;28;95288;-93
2022/02/17 00:46:48;;;;;;;;;;;8.90;99.90;9.40;99779.00;;;;336867;28;83411;-93
2022/02/17 00:47:00;;;;;;;;;;;8.90;99.90;9.40;99778.00;;;;338894;28;96910;-93
2022/02/17 00:47:12;;;;;;;;;;;8.90;99.90;9.40;99775.00;;;;340968;28;82616;-92
2022/02/17 00:47:24;;;;;;;;;;;8.90;99.90;9.30;99777.00;;;;337422;28;96340;-93
2022/02/17 00:47:35;;;;;;;;;;;8.90;99.90;9.40;99782.00;;;;335411;29;82440;-93
2022/02/17 00:47:47;;;;;;;;;;;8.90;99.90;9.40;99781.00;;;;335046;28;97246;-93
2022/02/17 00:47:59;;;;;;;;;;;8.90;99.90;9.30;99781.00;;;;335121;29;82507;-92
2022/02/17 00:48:11;;;;;;;;;;;8.90;99.90;9.30;99780.00;;;;337064;28;96771;-92
2022/02/17 00:48:23;;;;;;;;;;;8.90;99.90;9.40;99783.00;;;;336746;28;82514;-93
2022/02/17 00:48:35;;;;;;;;;;;8.90;99.90;9.50;99779.00;;;;335904;28;95857;-93
2022/02/17 00:48:47;;;;;;;;;;;8.90;99.90;9.50;99784.00;;;;339362;28;83303;-93
2022/02/17 00:48:59;;;;;;;;;;;8.90;99.90;9.40;99781.00;;;;337119;28;96896;-93
2022/02/17 00:49:11;;;;;;;;;;;8.90;99.90;9.40;99788.00;;;;338016;28;82523;-93
2022/02/17 00:49:23;;;;;;;;;;;8.90;99.90;9.40;99781.00;;;;338515;28;96706;-94
2022/02/17 00:49:35;;;;;;;;;;;8.90;99.90;9.50;99788.00;;;;339241;28;83257;-93
2022/02/17 00:49:47;;;;;;;;;;;8.90;99.90;9.50;99779.00;;;;339841;28;96758;-93
2022/02/17 00:49:58;;;;;;;;;;;8.90;99.90;9.50;99786.00;;;;340062;28;83631;-93
2022/02/17 00:50:10;;;;;;;;;;;9.00;99.90;9.50;99778.00;;;;338320;28;97767;-93
2022/02/17 00:50:22;;;;;;;;;;;8.90;99.90;9.50;99779.00;;;;339272;28;83347;-93
2022/02/17 00:50:34;;;;;;;;;;;8.90;99.90;9.50;99769.00;;;;338516;28;96804;-94
2022/02/17 00:50:46;;;;;;;;;;;8.90;99.90;9.60;99768.00;;;;335204;29;82397;-94
2022/02/17 00:50:58;;;;;;;;;;;9.00;99.90;9.50;99765.00;;;;337019;28;96561;-94
2022/02/17 00:51:10;;;;;;;;;;;9.00;99.90;9.50;99756.00;;;;340541;28;83421;-94
2022/02/17 00:51:22;;;;;;;;;;;9.00;99.90;9.50;99757.00;;;;335943;28;96538;-93
2022/02/17 00:51:34;;;;;;;;;;;9.00;99.90;9.60;99748.00;;;;338028;28;82506;-94
2022/02/17 00:51:46;;;;;;;;;;;9.00;99.90;9.60;99740.00;;;;337503;28;95768;-94
2022/02/17 00:51:58;;;;;;;;;;;9.00;99.90;9.60;99742.00;;;;339483;28;82652;-94
2022/02/17 00:52:10;;;;;;;;;;;9.00;99.90;9.50;99744.00;;;;337120;28;97999;-93
2022/02/17 00:52:22;;;;;;;;;;;9.00;99.90;9.50;99739.00;;;;337310;28;83508;-93
2022/02/17 00:52:34;;;;;;;;;;;9.00;99.90;9.40;99743.00;;;;336234;28;97008;-94
2022/02/17 00:52:46;;;;;;;;;;;9.00;99.90;9.40;99746.00;;;;336984;28;83438;-94
2022/02/17 00:52:58;;;;;;;;;;;9.00;99.90;9.30;99741.00;;;;335509;28;95673;-94
2022/02/17 00:53:10;;;;;;;;;;;9.00;99.90;9.40;99745.00;;;;339351;28;82488;-94
2022/02/17 00:53:22;;;;;;;;;;;9.00;99.90;9.40;99745.00;;;;337294;28;96598;-94
2022/02/17 00:53:34;;;;;;;;;;;9.00;99.90;9.40;99730.00;;;;338179;28;82565;-94
2022/02/17 00:53:46;;;;;;;;;;;9.00;99.90;9.40;99746.00;;;;338719;28;96661;-93
2022/02/17 00:53:57;;;;;;;;;;;9.00;99.90;9.40;99743.00;;;;339236;28;84037;-93
2022/02/17 00:54:09;;;;;;;;;;;9.00;99.90;9.40;99743.00;;;;335750;28;98009;-93
2022/02/17 00:54:22;;;;;;;;;;;9.00;99.90;9.40;99735.00;;;;335866;28;82565;-94
2022/02/17 00:54:34;;;;;;;;;;;9.00;99.90;9.40;99736.00;;;;337231;28;96177;-94
2022/02/17 00:54:47;;;;;;;;;;;9.00;99.90;9.40;99738.00;;;;336659;28;82598;-93
2022/02/17 00:54:59;;;;;;;;;;;9.00;99.90;9.50;99734.00;;;;336299;28;96574;-94
2022/02/17 00:55:11;;;;;;;;;;;9.00;99.90;9.50;99725.00;;;;339326;28;83384;-93
2022/02/17 00:55:23;;;;;;;;;;;9.00;99.90;9.50;99718.00;;;;337139;28;95848;-94
2022/02/17 00:55:35;;;;;;;;;;;9.00;99.90;9.50;99711.00;;;;336462;28;83548;-94
2022/02/17 00:55:47;;;;;;;;;;;9.00;99.90;9.60;99719.00;;;;337120;28;96707;-93
2022/02/17 00:55:59;;;;;;;;;;;9.00;99.90;9.60;99712.00;;;;338868;28;84566;-94
2022/02/17 00:56:10;;;;;;;;;;;9.00;99.90;9.60;99722.00;;;;338285;28;97825;-94
2022/02/17 00:56:22;;;;;;;;;;;9.00;99.90;9.50;99717.00;;;;336519;28;82460;-94
2022/02/17 00:56:35;;;;;;;;;;;9.00;99.90;9.50;99711.00;;;;335851;28;96662;-94
2022/02/17 00:56:46;;;;;;;;;;;9.00;99.90;9.40;99717.00;;;;339491;28;82320;-95
2022/02/17 00:56:58;;;;;;;;;;;9.00;99.90;9.40;99717.00;;;;336346;28;95501;-93
2022/02/17 00:57:12;;;;;;;;;;;9.00;99.90;9.30;99721.00;;;;338154;28;82350;-93
2022/02/17 00:57:25;;;;;;;;;;;9.00;99.90;9.40;99722.00;;;;340095;28;95658;-94
2022/02/17 00:57:37;;;;;;;;;;;9.00;99.90;9.50;99713.00;;;;338493;28;82501;-94
2022/02/17 00:57:49;;;;;;;;;;;9.00;99.90;9.50;99703.00;;;;338701;28;95684;-93
2022/02/17 00:58:00;;;;;;;;;;;9.00;99.90;9.50;99704.00;;;;339439;28;83418;-94
2022/02/17 00:58:12;;;;;;;;;;;9.00;99.90;9.50;99713.00;;;;337326;28;96868;-94
2022/02/17 00:58:24;;;;;;;;;;;9.00;99.90;9.40;99718.00;;;;341020;28;82481;-93
2022/02/17 00:58:36;;;;;;;;;;;9.00;99.90;9.40;99734.00;;;;337653;28;96972;-94
2022/02/17 00:58:48;;;;;;;;;;;9.00;99.90;9.40;99731.00;;;;338424;28;82472;-94
2022/02/17 00:59:01;;;;;;;;;;;9.00;99.90;9.40;99746.00;;;;337309;28;95772;-94
2022/02/17 00:59:13;;;;;;;;;;;9.00;99.90;9.30;99758.00;;;;338127;28;82580;-94
2022/02/17 00:59:26;;;;;;;;;;;9.00;99.90;9.30;99760.00;;;;338686;28;96683;-93
2022/02/17 00:59:40;;;;;;;;;;;9.00;99.90;9.30;99754.00;;;;339485;28;83298;-93
2022/02/17 00:59:57;;;;;;;;;;;9.00;99.90;9.30;99759.00;;;;335667;28;98450;-94
2022/02/17 01:00:09;;;;;;;;;;;8.90;99.90;9.30;99755.00;;;;338393;28;82497;-93
2022/02/17 01:00:21;;;;;;;;;;;8.90;99.90;9.40;99750.00;;;;335882;28;97439;-93
2022/02/17 01:00:33;;;;;;;;;;;8.90;99.90;9.50;99750.00;;;;338121;28;82519;-93
2022/02/17 01:00:44;;;;;;;;;;;9.00;99.90;9.50;99742.00;;;;337142;28;96774;-93
2022/02/17 01:00:56;;;;;;;;;;;9.00;99.90;9.50;99744.00;;;;338090;28;82608;-94
2022/02/17 01:01:10;;;;;;;;;;;9.00;99.90;9.40;99729.00;;;;337233;28;95356;-94
2022/02/17 01:01:22;;;;;;;;;;;9.00;99.90;9.40;99727.00;;;;336641;28;83322;-94
2022/02/17 01:01:34;;;;;;;;;;;9.00;99.90;9.30;99723.00;;;;337289;28;95344;-94
2022/02/17 01:01:47;;;;;;;;;;;9.00;99.90;9.30;99727.00;;;;339271;28;82511;-94
2022/02/17 01:01:59;;;;;;;;;;;9.00;99.90;9.40;99712.00;;;;337489;28;97859;-94
2022/02/17 01:02:11;;;;;;;;;;;9.00;99.90;9.40;99713.00;;;;339069;28;83551;-94
2022/02/17 01:02:23;;;;;;;;;;;9.00;99.90;9.40;99710.00;;;;337179;28;96304;-93
2022/02/17 01:02:35;;;;;;;;;;;9.00;99.90;9.40;99707.00;;;;338056;28;83441;-93
2022/02/17 01:02:47;;;;;;;;;;;9.00;99.90;9.40;99710.00;;;;337670;28;96732;-94
2022/02/17 01:02:59;;;;;;;;;;;8.90;99.90;9.30;99707.00;;;;338169;28;83681;-93
2022/02/17 01:03:11;;;;;;;;;;;9.00;99.90;9.30;99701.00;;;;336247;28;94166;-94
2022/02/17 01:03:23;;;;;;;;;;;8.90;99.90;9.30;99712.00;;;;335694;29;83349;-93
2022/02/17 01:03:35;;;;;;;;;;;8.90;99.90;9.30;99705.00;;;;337134;28;95359;-93
2022/02/17 01:03:47;;;;;;;;;;;8.90;99.90;9.30;99697.00;;;;337938;28;83224;-93
2022/02/17 01:03:58;;;;;;;;;;;8.90;99.90;9.30;99706.00;;;;335209;28;95200;-93
2022/02/17 01:04:11;;;;;;;;;;;8.90;99.90;9.20;99701.00;;;;337053;28;82560;-93
2022/02/17 01:04:23;;;;;;;;;;;8.90;99.90;9.20;99715.00;;;;334658;29;97721;-94
2022/02/17 01:04:35;;;;;;;;;;;8.90;99.90;9.20;99721.00;;;;334321;29;82468;-93